PWSweather.com
Personal Weather Stations
Station Observations
KKYBOWLI8
Greystone Ii, Bowling Green, KY 42101

Greystone IiBowling Green, KY 42101

Lat: 36.9238, Lon: -86.5206

Elevation: 600

Station Type: Davis Vantage Pro2

www.sokyweather.com

High Low Average
Temperature 68.6°F20.3°C 36.5°F2.5°C 52.9°F11.6°C
Dew Point 45.8°F7.7°C 27.7°F-2.4°C 38.2°F3.4°C
Winds 10.2 mph 16.4 kmh Calm Calm 5.0 mph SW8.0 kmh SW
Wind Gusts 20.0 mph32.2 kmh -- 10.0 mph16.1 kmh
Humidity 73% 41% 58%
Pressure 30.04 in1017.3 mb 29.84 in1010.5 mb -
Precipitation 0.00 in0.0 mm - -
Hour Temp Dew Point Humidity Winds Wind Gusts Pressure Precip Precip Rate Daily Precip Total
12:00 AM 37.8°F3.2°C 27.8°F-2.3°C 67% 0.9 mph SW1.4 kmh SW 5.0 mph8.0 kmh 30.05 in1017.6 mb 0.00 in0.0 mm 0.00 in0.0 mm 0.00 in0.0 mm
12:10 AM 37.8°F3.2°C 27.8°F-2.3°C 67% 0.8 mph SW1.3 kmh SW 4.0 mph6.4 kmh 30.05 in1017.6 mb 0.00 in0.0 mm 0.00 in0.0 mm 0.00 in0.0 mm
12:20 AM 38.1°F3.4°C 27.7°F-2.4°C 66% 0.2 mph SW0.3 kmh SW 7.0 mph11.3 kmh 30.05 in1017.6 mb 0.00 in0.0 mm 0.00 in0.0 mm 0.00 in0.0 mm
12:30 AM 38.2°F3.4°C 27.8°F-2.3°C 66% 0.6 mph SW1.0 kmh SW 4.0 mph6.4 kmh 30.05 in1017.6 mb 0.00 in0.0 mm 0.00 in0.0 mm 0.00 in0.0 mm
12:40 AM 38.1°F3.4°C 27.7°F-2.4°C 66% 0.8 mph WSW1.3 kmh WSW 3.0 mph4.8 kmh 30.04 in1017.3 mb 0.00 in0.0 mm 0.00 in0.0 mm 0.00 in0.0 mm
12:50 AM 37.6°F3.1°C 27.6°F-2.4°C 67% Calm Calm 3.0 mph4.8 kmh 30.04 in1017.3 mb 0.00 in0.0 mm 0.00 in0.0 mm 0.00 in0.0 mm
01:00 AM 37.3°F2.9°C 27.7°F-2.4°C 68% 0.4 mph WSW0.6 kmh WSW 4.0 mph6.4 kmh 30.04 in1017.3 mb 0.00 in0.0 mm 0.00 in0.0 mm 0.00 in0.0 mm
01:10 AM 37.3°F2.9°C 27.7°F-2.4°C 68% 1.0 mph WSW1.6 kmh WSW 4.0 mph6.4 kmh 30.04 in1017.3 mb 0.00 in0.0 mm 0.00 in0.0 mm 0.00 in0.0 mm
01:20 AM 37.1°F2.8°C 27.9°F-2.3°C 69% 0.7 mph SW1.1 kmh SW 3.0 mph4.8 kmh 30.04 in1017.3 mb 0.00 in0.0 mm 0.00 in0.0 mm 0.00 in0.0 mm
01:30 AM 37.3°F2.9°C 27.7°F-2.4°C 68% Calm Calm 3.0 mph4.8 kmh 30.04 in1017.3 mb 0.00 in0.0 mm 0.00 in0.0 mm 0.00 in0.0 mm
01:40 AM 37.5°F3.1°C 27.9°F-2.3°C 68% Calm Calm 3.0 mph4.8 kmh 30.04 in1017.3 mb 0.00 in0.0 mm 0.00 in0.0 mm 0.00 in0.0 mm
01:50 AM 37.6°F3.1°C 28.0°F-2.2°C 68% 0.7 mph SSW1.1 kmh SSW 4.0 mph6.4 kmh 30.03 in1016.9 mb 0.00 in0.0 mm 0.00 in0.0 mm 0.00 in0.0 mm
02:00 AM 37.6°F3.1°C 28.0°F-2.2°C 68% 1.0 mph SSW1.6 kmh SSW 5.0 mph8.0 kmh 30.03 in1016.9 mb 0.00 in0.0 mm 0.00 in0.0 mm 0.00 in0.0 mm
02:10 AM 37.6°F3.1°C 28.3°F-2.1°C 69% 1.1 mph SW1.8 kmh SW 4.0 mph6.4 kmh 30.03 in1016.9 mb 0.00 in0.0 mm 0.00 in0.0 mm 0.00 in0.0 mm
02:20 AM 37.5°F3.1°C 28.2°F-2.1°C 69% 1.0 mph SW1.6 kmh SW 5.0 mph8.0 kmh 30.02 in1016.6 mb 0.00 in0.0 mm 0.00 in0.0 mm 0.00 in0.0 mm
02:30 AM 37.3°F2.9°C 28.1°F-2.2°C 69% 0.7 mph SW1.1 kmh SW 3.0 mph4.8 kmh 30.02 in1016.6 mb 0.00 in0.0 mm 0.00 in0.0 mm 0.00 in0.0 mm
02:40 AM 36.9°F2.7°C 28.4°F-2.0°C 71% 0.3 mph SW0.5 kmh SW 5.0 mph8.0 kmh 30.02 in1016.6 mb 0.00 in0.0 mm 0.00 in0.0 mm 0.00 in0.0 mm
02:50 AM 36.8°F2.7°C 28.3°F-2.1°C 71% 1.0 mph SW1.6 kmh SW 6.0 mph9.7 kmh 30.02 in1016.6 mb 0.00 in0.0 mm 0.00 in0.0 mm 0.00 in0.0 mm
03:00 AM 36.6°F2.6°C 28.1°F-2.2°C 71% 1.0 mph SW1.6 kmh SW 6.0 mph9.7 kmh 30.01 in1016.3 mb 0.00 in0.0 mm 0.00 in0.0 mm 0.00 in0.0 mm
03:10 AM 36.5°F2.5°C 28.3°F-2.1°C 72% 0.9 mph SW1.4 kmh SW 5.0 mph8.0 kmh 30.00 in1015.9 mb 0.00 in0.0 mm 0.00 in0.0 mm 0.00 in0.0 mm
03:20 AM 36.6°F2.6°C 28.1°F-2.2°C 71% 0.6 mph SW1.0 kmh SW 5.0 mph8.0 kmh 30.00 in1015.9 mb 0.00 in0.0 mm 0.00 in0.0 mm 0.00 in0.0 mm
03:30 AM 36.8°F2.7°C 28.6°F-1.9°C 72% 0.6 mph SW1.0 kmh SW 4.0 mph6.4 kmh 30.00 in1015.9 mb 0.00 in0.0 mm 0.00 in0.0 mm 0.00 in0.0 mm
03:40 AM 37.5°F3.1°C 28.6°F-1.9°C 70% 1.2 mph WSW1.9 kmh WSW 9.0 mph14.5 kmh 30.00 in1015.9 mb 0.00 in0.0 mm 0.00 in0.0 mm 0.00 in0.0 mm
03:50 AM 38.6°F3.7°C 28.9°F-1.7°C 68% 2.4 mph WSW3.9 kmh WSW 9.0 mph14.5 kmh 29.99 in1015.6 mb 0.00 in0.0 mm 0.00 in0.0 mm 0.00 in0.0 mm
04:00 AM 39.4°F4.1°C 29.3°F-1.5°C 67% 3.4 mph W5.5 kmh W 10.0 mph16.1 kmh 29.98 in1015.2 mb 0.00 in0.0 mm 0.00 in0.0 mm 0.00 in0.0 mm
04:10 AM 39.6°F4.2°C 29.2°F-1.6°C 66% 4.0 mph WSW6.4 kmh WSW 9.0 mph14.5 kmh 29.98 in1015.2 mb 0.00 in0.0 mm 0.00 in0.0 mm 0.00 in0.0 mm
04:20 AM 39.8°F4.3°C 29.4°F-1.4°C 66% 4.2 mph WSW6.8 kmh WSW 8.0 mph12.9 kmh 29.98 in1015.2 mb 0.00 in0.0 mm 0.00 in0.0 mm 0.00 in0.0 mm
04:30 AM 39.9°F4.4°C 29.5°F-1.4°C 66% 4.0 mph WSW6.4 kmh WSW 9.0 mph14.5 kmh 29.98 in1015.2 mb 0.00 in0.0 mm 0.00 in0.0 mm 0.00 in0.0 mm
04:40 AM 40.1°F4.5°C 29.6°F-1.3°C 66% 5.0 mph W8.0 kmh W 10.0 mph16.1 kmh 29.98 in1015.2 mb 0.00 in0.0 mm 0.00 in0.0 mm 0.00 in0.0 mm
04:50 AM 40.2°F4.6°C 29.7°F-1.3°C 66% 5.4 mph WSW8.7 kmh WSW 11.0 mph17.7 kmh 29.98 in1015.2 mb 0.00 in0.0 mm 0.00 in0.0 mm 0.00 in0.0 mm
05:00 AM 40.4°F4.7°C 29.9°F-1.2°C 66% 5.0 mph W8.0 kmh W 9.0 mph14.5 kmh 29.98 in1015.2 mb 0.00 in0.0 mm 0.00 in0.0 mm 0.00 in0.0 mm
05:10 AM 40.4°F4.7°C 29.9°F-1.2°C 66% 5.0 mph W8.0 kmh W 9.0 mph14.5 kmh 29.98 in1015.2 mb 0.00 in0.0 mm 0.00 in0.0 mm 0.00 in0.0 mm
05:20 AM 40.5°F4.7°C 30.0°F-1.1°C 66% 5.7 mph W9.2 kmh W 9.0 mph14.5 kmh 29.98 in1015.2 mb 0.00 in0.0 mm 0.00 in0.0 mm 0.00 in0.0 mm
05:30 AM 40.4°F4.7°C 30.3°F-0.9°C 67% 5.0 mph W8.0 kmh W 10.0 mph16.1 kmh 29.98 in1015.2 mb 0.00 in0.0 mm 0.00 in0.0 mm 0.00 in0.0 mm
05:40 AM 40.4°F4.7°C 30.3°F-0.9°C 67% 5.7 mph W9.2 kmh W 10.0 mph16.1 kmh 29.98 in1015.2 mb 0.00 in0.0 mm 0.00 in0.0 mm 0.00 in0.0 mm
05:50 AM 40.5°F4.7°C 30.4°F-0.9°C 67% 6.0 mph W9.7 kmh W 12.0 mph19.3 kmh 29.98 in1015.2 mb 0.00 in0.0 mm 0.00 in0.0 mm 0.00 in0.0 mm
06:00 AM 40.5°F4.7°C 30.4°F-0.9°C 67% 6.0 mph W9.7 kmh W 10.0 mph16.1 kmh 29.97 in1014.9 mb 0.00 in0.0 mm 0.00 in0.0 mm 0.00 in0.0 mm
06:10 AM 40.5°F4.7°C 30.4°F-0.9°C 67% 6.0 mph W9.7 kmh W 11.0 mph17.7 kmh 29.97 in1014.9 mb 0.00 in0.0 mm 0.00 in0.0 mm 0.00 in0.0 mm
06:20 AM 40.6°F4.8°C 30.5°F-0.8°C 67% 6.0 mph W9.7 kmh W 11.0 mph17.7 kmh 29.97 in1014.9 mb 0.00 in0.0 mm 0.00 in0.0 mm 0.00 in0.0 mm
06:30 AM 40.9°F4.9°C 30.4°F-0.9°C 66% 6.0 mph W9.7 kmh W 11.0 mph17.7 kmh 29.97 in1014.9 mb 0.00 in0.0 mm 0.00 in0.0 mm 0.00 in0.0 mm
06:40 AM 41.1°F5.1°C 30.6°F-0.8°C 66% 6.5 mph W10.5 kmh W 11.0 mph17.7 kmh 29.97 in1014.9 mb 0.00 in0.0 mm 0.00 in0.0 mm 0.00 in0.0 mm
06:50 AM 41.4°F5.2°C 30.9°F-0.6°C 66% 7.0 mph W11.3 kmh W 13.0 mph20.9 kmh 29.97 in1014.9 mb 0.00 in0.0 mm 0.00 in0.0 mm 0.00 in0.0 mm
07:00 AM 41.5°F5.3°C 31.0°F-0.6°C 66% 6.5 mph W10.5 kmh W 13.0 mph20.9 kmh 29.97 in1014.9 mb 0.00 in0.0 mm 0.00 in0.0 mm 0.00 in0.0 mm
07:10 AM 41.8°F5.4°C 31.3°F-0.4°C 66% 6.8 mph WSW10.9 kmh WSW 11.0 mph17.7 kmh 29.98 in1015.2 mb 0.00 in0.0 mm 0.00 in0.0 mm 0.00 in0.0 mm
07:20 AM 41.8°F5.4°C 31.3°F-0.4°C 66% 6.1 mph W9.8 kmh W 10.0 mph16.1 kmh 29.98 in1015.2 mb 0.00 in0.0 mm 0.00 in0.0 mm 0.00 in0.0 mm
07:30 AM 42.1°F5.6°C 31.9°F-0.1°C 67% 6.1 mph W9.8 kmh W 10.0 mph16.1 kmh 29.98 in1015.2 mb 0.00 in0.0 mm 0.00 in0.0 mm 0.00 in0.0 mm
07:40 AM 42.6°F5.9°C 32.4°F0.2°C 67% 6.0 mph W9.7 kmh W 12.0 mph19.3 kmh 29.98 in1015.2 mb 0.00 in0.0 mm 0.00 in0.0 mm 0.00 in0.0 mm
07:50 AM 42.8°F6.0°C 32.2°F0.1°C 66% 5.4 mph W8.7 kmh W 9.0 mph14.5 kmh 29.98 in1015.2 mb 0.00 in0.0 mm 0.00 in0.0 mm 0.00 in0.0 mm
08:00 AM 43.1°F6.2°C 32.5°F0.3°C 66% 5.0 mph W8.0 kmh W 9.0 mph14.5 kmh 29.98 in1015.2 mb 0.00 in0.0 mm 0.00 in0.0 mm 0.00 in0.0 mm
08:10 AM 43.4°F6.3°C 32.8°F0.4°C 66% 5.0 mph W8.0 kmh W 11.0 mph17.7 kmh 29.98 in1015.2 mb 0.00 in0.0 mm 0.00 in0.0 mm 0.00 in0.0 mm
08:20 AM 43.9°F6.6°C 33.3°F0.7°C 66% 5.5 mph W8.9 kmh W 12.0 mph19.3 kmh 29.98 in1015.2 mb 0.00 in0.0 mm 0.00 in0.0 mm 0.00 in0.0 mm
08:30 AM 44.6°F7.0°C 33.6°F0.9°C 65% 6.9 mph W11.1 kmh W 13.0 mph20.9 kmh 29.98 in1015.2 mb 0.00 in0.0 mm 0.00 in0.0 mm 0.00 in0.0 mm
08:40 AM 45.2°F7.3°C 33.7°F0.9°C 64% 7.0 mph W11.3 kmh W 13.0 mph20.9 kmh 29.99 in1015.6 mb 0.00 in0.0 mm 0.00 in0.0 mm 0.00 in0.0 mm
08:50 AM 45.7°F7.6°C 34.6°F1.4°C 65% 7.2 mph W11.6 kmh W 16.0 mph25.7 kmh 29.99 in1015.6 mb 0.00 in0.0 mm 0.00 in0.0 mm 0.00 in0.0 mm
09:00 AM 46.4°F8.0°C 35.3°F1.8°C 65% 8.0 mph W12.9 kmh W 12.0 mph19.3 kmh 29.98 in1015.2 mb 0.00 in0.0 mm 0.00 in0.0 mm 0.00 in0.0 mm
09:10 AM 46.8°F8.2°C 35.3°F1.8°C 64% 7.3 mph W11.7 kmh W 14.0 mph22.5 kmh 29.99 in1015.6 mb 0.00 in0.0 mm 0.00 in0.0 mm 0.00 in0.0 mm
09:20 AM 47.6°F8.7°C 35.6°F2.0°C 63% 8.0 mph W12.9 kmh W 14.0 mph22.5 kmh 29.98 in1015.2 mb 0.00 in0.0 mm 0.00 in0.0 mm 0.00 in0.0 mm
09:30 AM 48.2°F9.0°C 36.2°F2.3°C 63% 7.0 mph W11.3 kmh W 12.0 mph19.3 kmh 29.98 in1015.2 mb 0.00 in0.0 mm 0.00 in0.0 mm 0.00 in0.0 mm
09:40 AM 49.1°F9.5°C 37.4°F3.0°C 64% 6.2 mph W10.0 kmh W 14.0 mph22.5 kmh 29.98 in1015.2 mb 0.00 in0.0 mm 0.00 in0.0 mm 0.00 in0.0 mm
09:50 AM 49.8°F9.9°C 36.9°F2.7°C 61% 7.4 mph WNW11.9 kmh WNW 14.0 mph22.5 kmh 30.00 in1015.9 mb 0.00 in0.0 mm 0.00 in0.0 mm 0.00 in0.0 mm
10:00 AM 51.0°F10.6°C 38.4°F3.6°C 62% 7.3 mph W11.7 kmh W 12.0 mph19.3 kmh 29.99 in1015.6 mb 0.00 in0.0 mm 0.00 in0.0 mm 0.00 in0.0 mm
10:10 AM 51.9°F11.1°C 39.3°F4.1°C 62% 6.7 mph W10.8 kmh W 13.0 mph20.9 kmh 29.99 in1015.6 mb 0.00 in0.0 mm 0.00 in0.0 mm 0.00 in0.0 mm
10:20 AM 52.3°F11.3°C 38.8°F3.8°C 60% 7.1 mph W11.4 kmh W 13.0 mph20.9 kmh 29.99 in1015.6 mb 0.00 in0.0 mm 0.00 in0.0 mm 0.00 in0.0 mm
10:30 AM 53.1°F11.7°C 39.1°F3.9°C 59% 8.6 mph W13.8 kmh W 19.0 mph30.6 kmh 29.98 in1015.2 mb 0.00 in0.0 mm 0.00 in0.0 mm 0.00 in0.0 mm
10:40 AM 53.8°F12.1°C 40.2°F4.6°C 60% 8.1 mph W13.0 kmh W 16.0 mph25.7 kmh 29.98 in1015.2 mb 0.00 in0.0 mm 0.00 in0.0 mm 0.00 in0.0 mm
10:50 AM 54.7°F12.6°C 39.8°F4.3°C 57% 8.1 mph W13.0 kmh W 16.0 mph25.7 kmh 29.98 in1015.2 mb 0.00 in0.0 mm 0.00 in0.0 mm 0.00 in0.0 mm
11:00 AM 55.6°F13.1°C 40.6°F4.8°C 57% 7.3 mph W11.7 kmh W 16.0 mph25.7 kmh 29.97 in1014.9 mb 0.00 in0.0 mm 0.00 in0.0 mm 0.00 in0.0 mm
11:10 AM 56.0°F13.3°C 41.0°F5.0°C 57% 8.9 mph W14.3 kmh W 17.0 mph27.4 kmh 29.97 in1014.9 mb 0.00 in0.0 mm 0.00 in0.0 mm 0.00 in0.0 mm
11:20 AM 57.0°F13.9°C 41.0°F5.0°C 55% 8.7 mph W14.0 kmh W 13.0 mph20.9 kmh 29.97 in1014.9 mb 0.00 in0.0 mm 0.00 in0.0 mm 0.00 in0.0 mm
11:30 AM 57.6°F14.2°C 39.6°F4.2°C 51% 6.9 mph W11.1 kmh W 14.0 mph22.5 kmh 29.97 in1014.9 mb 0.00 in0.0 mm 0.00 in0.0 mm 0.00 in0.0 mm
11:40 AM 57.9°F14.4°C 40.9°F4.9°C 53% 8.6 mph W13.8 kmh W 17.0 mph27.4 kmh 29.96 in1014.6 mb 0.00 in0.0 mm 0.00 in0.0 mm 0.00 in0.0 mm
11:50 AM 58.9°F14.9°C 41.8°F5.4°C 53% 8.4 mph W13.5 kmh W 16.0 mph25.7 kmh 29.96 in1014.6 mb 0.00 in0.0 mm 0.00 in0.0 mm 0.00 in0.0 mm
12:00 PM 59.5°F15.3°C 41.3°F5.2°C 51% 8.3 mph WNW13.4 kmh WNW 14.0 mph22.5 kmh 29.96 in1014.6 mb 0.00 in0.0 mm 0.00 in0.0 mm 0.00 in0.0 mm
12:10 PM 59.9°F15.5°C 41.2°F5.1°C 50% 8.8 mph W14.2 kmh W 16.0 mph25.7 kmh 29.95 in1014.2 mb 0.00 in0.0 mm 0.00 in0.0 mm 0.00 in0.0 mm
12:20 PM 60.7°F15.9°C 41.9°F5.5°C 50% 8.1 mph W13.0 kmh W 15.0 mph24.1 kmh 29.95 in1014.2 mb 0.00 in0.0 mm 0.00 in0.0 mm 0.00 in0.0 mm
12:30 PM 61.2°F16.2°C 41.3°F5.2°C 48% 8.0 mph W12.9 kmh W 18.0 mph29.0 kmh 29.95 in1014.2 mb 0.00 in0.0 mm 0.00 in0.0 mm 0.00 in0.0 mm
12:40 PM 61.3°F16.3°C 42.5°F5.8°C 50% 9.9 mph WNW15.9 kmh WNW 17.0 mph27.4 kmh 29.95 in1014.2 mb 0.00 in0.0 mm 0.00 in0.0 mm 0.00 in0.0 mm
12:50 PM 62.1°F16.7°C 43.2°F6.2°C 50% 9.2 mph WNW14.8 kmh WNW 15.0 mph24.1 kmh 29.94 in1013.9 mb 0.00 in0.0 mm 0.00 in0.0 mm 0.00 in0.0 mm
01:00 PM 62.1°F16.7°C 42.2°F5.7°C 48% 10.2 mph WNW16.4 kmh WNW 16.0 mph25.7 kmh 29.94 in1013.9 mb 0.00 in0.0 mm 0.00 in0.0 mm 0.00 in0.0 mm
01:10 PM 62.7°F17.1°C 43.8°F6.6°C 50% 10.1 mph WNW16.3 kmh WNW 16.0 mph25.7 kmh 29.93 in1013.5 mb 0.00 in0.0 mm 0.00 in0.0 mm 0.00 in0.0 mm
01:20 PM 63.0°F17.2°C 44.6°F7.0°C 51% 9.3 mph WNW15.0 kmh WNW 15.0 mph24.1 kmh 29.93 in1013.5 mb 0.00 in0.0 mm 0.00 in0.0 mm 0.00 in0.0 mm
01:30 PM 63.4°F17.4°C 44.4°F6.9°C 50% 8.3 mph WNW13.4 kmh WNW 14.0 mph22.5 kmh 29.92 in1013.2 mb 0.00 in0.0 mm 0.00 in0.0 mm 0.00 in0.0 mm
01:40 PM 64.0°F17.8°C 43.9°F6.6°C 48% 6.7 mph W10.8 kmh W 12.0 mph19.3 kmh 29.91 in1012.9 mb 0.00 in0.0 mm 0.00 in0.0 mm 0.00 in0.0 mm
01:50 PM 64.6°F18.1°C 45.5°F7.5°C 50% 7.5 mph W12.1 kmh W 13.0 mph20.9 kmh 29.91 in1012.9 mb 0.00 in0.0 mm 0.00 in0.0 mm 0.00 in0.0 mm
02:00 PM 64.6°F18.1°C 43.9°F6.6°C 47% 7.8 mph WNW12.6 kmh WNW 15.0 mph24.1 kmh 29.90 in1012.5 mb 0.00 in0.0 mm 0.00 in0.0 mm 0.00 in0.0 mm
02:10 PM 64.8°F18.2°C 41.8°F5.4°C 43% 8.4 mph W13.5 kmh W 13.0 mph20.9 kmh 29.90 in1012.5 mb 0.00 in0.0 mm 0.00 in0.0 mm 0.00 in0.0 mm
02:20 PM 65.0°F18.3°C 44.8°F7.1°C 48% 7.5 mph W12.1 kmh W 17.0 mph27.4 kmh 29.89 in1012.2 mb 0.00 in0.0 mm 0.00 in0.0 mm 0.00 in0.0 mm
02:30 PM 65.5°F18.6°C 44.2°F6.8°C 46% 8.5 mph W13.7 kmh W 15.0 mph24.1 kmh 29.89 in1012.2 mb 0.00 in0.0 mm 0.00 in0.0 mm 0.00 in0.0 mm
02:40 PM 65.8°F18.8°C 43.9°F6.6°C 45% 8.2 mph W13.2 kmh W 16.0 mph25.7 kmh 29.89 in1012.2 mb 0.00 in0.0 mm 0.00 in0.0 mm 0.00 in0.0 mm
02:50 PM 66.1°F18.9°C 44.1°F6.7°C 45% 7.5 mph W12.1 kmh W 14.0 mph22.5 kmh 29.88 in1011.9 mb 0.00 in0.0 mm 0.00 in0.0 mm 0.00 in0.0 mm
03:00 PM 66.4°F19.1°C 44.4°F6.9°C 45% 7.1 mph W11.4 kmh W 13.0 mph20.9 kmh 29.88 in1011.9 mb 0.00 in0.0 mm 0.00 in0.0 mm 0.00 in0.0 mm
03:10 PM 66.7°F19.3°C 45.3°F7.4°C 46% 7.6 mph W12.2 kmh W 15.0 mph24.1 kmh 29.87 in1011.5 mb 0.00 in0.0 mm 0.00 in0.0 mm 0.00 in0.0 mm
03:20 PM 66.9°F19.4°C 44.9°F7.2°C 45% 8.2 mph W13.2 kmh W 18.0 mph29.0 kmh 29.87 in1011.5 mb 0.00 in0.0 mm 0.00 in0.0 mm 0.00 in0.0 mm
03:30 PM 67.4°F19.7°C 44.7°F7.1°C 44% 7.2 mph W11.6 kmh W 19.0 mph30.6 kmh 29.86 in1011.2 mb 0.00 in0.0 mm 0.00 in0.0 mm 0.00 in0.0 mm
03:40 PM 67.4°F19.7°C 44.1°F6.7°C 43% 8.8 mph W14.2 kmh W 20.0 mph32.2 kmh 29.86 in1011.2 mb 0.00 in0.0 mm 0.00 in0.0 mm 0.00 in0.0 mm
03:50 PM 67.6°F19.8°C 43.1°F6.2°C 41% 8.4 mph W13.5 kmh W 17.0 mph27.4 kmh 29.86 in1011.2 mb 0.00 in0.0 mm 0.00 in0.0 mm 0.00 in0.0 mm
04:00 PM 68.6°F20.3°C 45.8°F7.7°C 44% 7.8 mph W12.6 kmh W 13.0 mph20.9 kmh 29.86 in1011.2 mb 0.00 in0.0 mm 0.00 in0.0 mm 0.00 in0.0 mm
04:10 PM 68.6°F20.3°C 45.2°F7.3°C 43% 6.9 mph W11.1 kmh W 15.0 mph24.1 kmh 29.85 in1010.8 mb 0.00 in0.0 mm 0.00 in0.0 mm 0.00 in0.0 mm
04:20 PM 68.2°F20.1°C 43.6°F6.4°C 41% 7.2 mph W11.6 kmh W 16.0 mph25.7 kmh 29.85 in1010.8 mb 0.00 in0.0 mm 0.00 in0.0 mm 0.00 in0.0 mm
04:30 PM 68.2°F20.1°C 43.6°F6.4°C 41% 8.6 mph W13.8 kmh W 19.0 mph30.6 kmh 29.85 in1010.8 mb 0.00 in0.0 mm 0.00 in0.0 mm 0.00 in0.0 mm
04:40 PM 68.1°F20.1°C 43.5°F6.4°C 41% 8.1 mph W13.0 kmh W 16.0 mph25.7 kmh 29.85 in1010.8 mb 0.00 in0.0 mm 0.00 in0.0 mm 0.00 in0.0 mm
04:50 PM 68.1°F20.1°C 43.5°F6.4°C 41% 8.6 mph W13.8 kmh W 14.0 mph22.5 kmh 29.85 in1010.8 mb 0.00 in0.0 mm 0.00 in0.0 mm 0.00 in0.0 mm
05:00 PM 67.7°F19.8°C 44.4°F6.9°C 43% 7.5 mph W12.1 kmh W 14.0 mph22.5 kmh 29.85 in1010.8 mb 0.00 in0.0 mm 0.00 in0.0 mm 0.00 in0.0 mm
05:10 PM 67.9°F19.9°C 44.0°F6.7°C 42% 6.6 mph W10.6 kmh W 13.0 mph20.9 kmh 29.84 in1010.5 mb 0.00 in0.0 mm 0.00 in0.0 mm 0.00 in0.0 mm
05:20 PM 67.7°F19.8°C 44.4°F6.9°C 43% 6.9 mph W11.1 kmh W 15.0 mph24.1 kmh 29.85 in1010.8 mb 0.00 in0.0 mm 0.00 in0.0 mm 0.00 in0.0 mm
05:30 PM 67.4°F19.7°C 44.1°F6.7°C 43% 6.7 mph W10.8 kmh W 13.0 mph20.9 kmh 29.85 in1010.8 mb 0.00 in0.0 mm 0.00 in0.0 mm 0.00 in0.0 mm
05:40 PM 67.2°F19.6°C 43.3°F6.3°C 42% 7.5 mph W12.1 kmh W 18.0 mph29.0 kmh 29.84 in1010.5 mb 0.00 in0.0 mm 0.00 in0.0 mm 0.00 in0.0 mm
05:50 PM 67.1°F19.5°C 44.4°F6.9°C 44% 8.2 mph W13.2 kmh W 15.0 mph24.1 kmh 29.85 in1010.8 mb 0.00 in0.0 mm 0.00 in0.0 mm 0.00 in0.0 mm
06:00 PM 66.7°F19.3°C 44.1°F6.7°C 44% 6.6 mph W10.6 kmh W 11.0 mph17.7 kmh 29.85 in1010.8 mb 0.00 in0.0 mm 0.00 in0.0 mm 0.00 in0.0 mm
06:10 PM 66.4°F19.1°C 43.2°F6.2°C 43% 5.0 mph W8.0 kmh W 12.0 mph19.3 kmh 29.85 in1010.8 mb 0.00 in0.0 mm 0.00 in0.0 mm 0.00 in0.0 mm
06:20 PM 65.9°F18.8°C 43.9°F6.6°C 45% 6.7 mph W10.8 kmh W 12.0 mph19.3 kmh 29.85 in1010.8 mb 0.00 in0.0 mm 0.00 in0.0 mm 0.00 in0.0 mm
06:30 PM 65.1°F18.4°C 43.2°F6.2°C 45% 6.0 mph WNW9.7 kmh WNW 13.0 mph20.9 kmh 29.85 in1010.8 mb 0.00 in0.0 mm 0.00 in0.0 mm 0.00 in0.0 mm
06:40 PM 64.6°F18.1°C 43.9°F6.6°C 47% 6.3 mph WNW10.1 kmh WNW 10.0 mph16.1 kmh 29.85 in1010.8 mb 0.00 in0.0 mm 0.00 in0.0 mm 0.00 in0.0 mm
06:50 PM 63.7°F17.6°C 43.6°F6.4°C 48% 4.4 mph WNW7.1 kmh WNW 6.0 mph9.7 kmh 29.85 in1010.8 mb 0.00 in0.0 mm 0.00 in0.0 mm 0.00 in0.0 mm
07:00 PM 62.9°F17.2°C 44.0°F6.7°C 50% 2.7 mph WNW4.3 kmh WNW 5.0 mph8.0 kmh 29.86 in1011.2 mb 0.00 in0.0 mm 0.00 in0.0 mm 0.00 in0.0 mm
07:10 PM 62.3°F16.8°C 43.4°F6.3°C 50% 1.0 mph WNW1.6 kmh WNW 5.0 mph8.0 kmh 29.86 in1011.2 mb 0.00 in0.0 mm 0.00 in0.0 mm 0.00 in0.0 mm
07:20 PM 61.9°F16.6°C 43.6°F6.4°C 51% 1.0 mph WNW1.6 kmh WNW 6.0 mph9.7 kmh 29.86 in1011.2 mb 0.00 in0.0 mm 0.00 in0.0 mm 0.00 in0.0 mm
07:30 PM 61.5°F16.4°C 43.7°F6.5°C 52% 2.3 mph W3.7 kmh W 7.0 mph11.3 kmh 29.86 in1011.2 mb 0.00 in0.0 mm 0.00 in0.0 mm 0.00 in0.0 mm
07:40 PM 61.2°F16.2°C 43.9°F6.6°C 53% 3.0 mph WNW4.8 kmh WNW 6.0 mph9.7 kmh 29.86 in1011.2 mb 0.00 in0.0 mm 0.00 in0.0 mm 0.00 in0.0 mm
07:50 PM 60.7°F15.9°C 43.9°F6.6°C 54% 2.7 mph WNW4.3 kmh WNW 5.0 mph8.0 kmh 29.87 in1011.5 mb 0.00 in0.0 mm 0.00 in0.0 mm 0.00 in0.0 mm
08:00 PM 60.2°F15.7°C 43.5°F6.4°C 54% 1.0 mph WNW1.6 kmh WNW 5.0 mph8.0 kmh 29.87 in1011.5 mb 0.00 in0.0 mm 0.00 in0.0 mm 0.00 in0.0 mm
08:10 PM 59.9°F15.5°C 43.7°F6.5°C 55% 1.0 mph WNW1.6 kmh WNW 5.0 mph8.0 kmh 29.87 in1011.5 mb 0.00 in0.0 mm 0.00 in0.0 mm 0.00 in0.0 mm
08:20 PM 59.5°F15.3°C 43.3°F6.3°C 55% 0.2 mph WNW0.3 kmh WNW 3.0 mph4.8 kmh 29.88 in1011.9 mb 0.00 in0.0 mm 0.00 in0.0 mm 0.00 in0.0 mm
08:30 PM 59.0°F15.0°C 43.3°F6.3°C 56% Calm Calm 2.0 mph3.2 kmh 29.88 in1011.9 mb 0.00 in0.0 mm 0.00 in0.0 mm 0.00 in0.0 mm
08:40 PM 58.7°F14.8°C 43.0°F6.1°C 56% Calm Calm 3.0 mph4.8 kmh 29.88 in1011.9 mb 0.00 in0.0 mm 0.00 in0.0 mm 0.00 in0.0 mm
08:50 PM 58.6°F14.8°C 42.9°F6.1°C 56% Calm Calm 5.0 mph8.0 kmh 29.88 in1011.9 mb 0.00 in0.0 mm 0.00 in0.0 mm 0.00 in0.0 mm
09:00 PM 59.0°F15.0°C 42.8°F6.0°C 55% 2.1 mph WNW3.4 kmh WNW 6.0 mph9.7 kmh 29.88 in1011.9 mb 0.00 in0.0 mm 0.00 in0.0 mm 0.00 in0.0 mm
09:10 PM 58.7°F14.8°C 42.6°F5.9°C 55% 1.9 mph WNW3.1 kmh WNW 4.0 mph6.4 kmh 29.89 in1012.2 mb 0.00 in0.0 mm 0.00 in0.0 mm 0.00 in0.0 mm
09:20 PM 58.1°F14.5°C 42.9°F6.1°C 57% 0.6 mph WNW1.0 kmh WNW 3.0 mph4.8 kmh 29.89 in1012.2 mb 0.00 in0.0 mm 0.00 in0.0 mm 0.00 in0.0 mm
09:30 PM 57.8°F14.3°C 42.7°F5.9°C 57% Calm Calm 1.0 mph1.6 kmh 29.89 in1012.2 mb 0.00 in0.0 mm 0.00 in0.0 mm 0.00 in0.0 mm
09:40 PM 57.2°F14.0°C 42.5°F5.8°C 58% Calm Calm -- 29.89 in1012.2 mb 0.00 in0.0 mm 0.00 in0.0 mm 0.00 in0.0 mm
09:50 PM 57.0°F13.9°C 42.4°F5.8°C 58% Calm Calm 3.0 mph4.8 kmh 29.89 in1012.2 mb 0.00 in0.0 mm 0.00 in0.0 mm 0.00 in0.0 mm
10:00 PM 56.8°F13.8°C 42.2°F5.7°C 58% Calm Calm 3.0 mph4.8 kmh 29.89 in1012.2 mb 0.00 in0.0 mm 0.00 in0.0 mm 0.00 in0.0 mm
10:10 PM 56.8°F13.8°C 42.2°F5.7°C 58% Calm Calm 2.0 mph3.2 kmh 29.90 in1012.5 mb 0.00 in0.0 mm 0.00 in0.0 mm 0.00 in0.0 mm
10:20 PM 56.2°F13.4°C 42.5°F5.8°C 60% Calm Calm -- 29.90 in1012.5 mb 0.00 in0.0 mm 0.00 in0.0 mm 0.00 in0.0 mm
10:30 PM 55.0°F12.8°C 41.8°F5.4°C 61% Calm Calm -- 29.90 in1012.5 mb 0.00 in0.0 mm 0.00 in0.0 mm 0.00 in0.0 mm
10:40 PM 53.5°F11.9°C 41.6°F5.3°C 64% Calm Calm -- 29.90 in1012.5 mb 0.00 in0.0 mm 0.00 in0.0 mm 0.00 in0.0 mm
10:50 PM 52.2°F11.2°C 41.6°F5.3°C 67% Calm Calm -- 29.91 in1012.9 mb 0.00 in0.0 mm 0.00 in0.0 mm 0.00 in0.0 mm
11:00 PM 51.4°F10.8°C 41.6°F5.3°C 69% Calm Calm -- 29.91 in1012.9 mb 0.00 in0.0 mm 0.00 in0.0 mm 0.00 in0.0 mm
11:10 PM 50.7°F10.4°C 41.3°F5.2°C 70% Calm Calm -- 29.91 in1012.9 mb 0.00 in0.0 mm 0.00 in0.0 mm 0.00 in0.0 mm
11:20 PM 50.2°F10.1°C 41.2°F5.1°C 71% Calm Calm -- 29.91 in1012.9 mb 0.00 in0.0 mm 0.00 in0.0 mm 0.00 in0.0 mm
11:30 PM 49.7°F9.8°C 41.0°F5.0°C 72% Calm Calm -- 29.91 in1012.9 mb 0.00 in0.0 mm 0.00 in0.0 mm 0.00 in0.0 mm
11:40 PM 49.9°F9.9°C 41.2°F5.1°C 72% Calm Calm -- 29.91 in1012.9 mb 0.00 in0.0 mm 0.00 in0.0 mm 0.00 in0.0 mm
11:50 PM 50.1°F10.1°C 41.1°F5.1°C 71% Calm Calm -- 29.91 in1012.9 mb 0.00 in0.0 mm 0.00 in0.0 mm 0.00 in0.0 mm